createdAt,value
2019-04-07T00:00:15.327Z,12.27
2019-04-07T00:03:18.740Z,11.60
2019-04-07T00:06:22.481Z,11.97
2019-04-07T00:09:27.576Z,12.30
2019-04-07T00:12:31.042Z,13.97
2019-04-07T00:15:34.465Z,12.90
2019-04-07T00:18:38.845Z,14.10
2019-04-07T00:21:42.362Z,12.97
2019-04-07T00:24:46.771Z,14.80
2019-04-07T00:27:50.338Z,15.40
2019-04-07T00:30:53.349Z,12.70
2019-04-07T00:33:56.568Z,13.33
2019-04-07T00:37:00.006Z,13.20
2019-04-07T00:40:04.183Z,13.17
2019-04-07T00:43:07.553Z,14.30
2019-04-07T00:46:11.530Z,12.17
2019-04-07T00:49:14.954Z,11.83
2019-04-07T00:52:20.659Z,11.50
2019-04-07T00:55:24.239Z,14.07
2019-04-07T00:58:28.142Z,11.53
2019-04-07T01:01:31.751Z,12.60
2019-04-07T01:04:35.539Z,11.23
2019-04-07T01:07:39.139Z,12.37
2019-04-07T01:10:42.670Z,12.27
2019-04-07T01:13:46.181Z,11.07
2019-04-07T01:16:49.361Z,12.93
2019-04-07T01:19:52.864Z,12.33
2019-04-07T01:22:57.349Z,12.73
2019-04-07T01:26:00.951Z,16.47
2019-04-07T01:29:04.624Z,10.33
2019-04-07T01:32:08.789Z,11.70
2019-04-07T01:35:13.387Z,10.57
2019-04-07T01:38:16.758Z,12.50
2019-04-07T01:41:42.976Z,10.40
2019-04-07T01:45:06.110Z,9.53
2019-04-07T01:48:17.440Z,9.80
2019-04-07T01:51:35.501Z,10.07
2019-04-07T01:54:53.668Z,10.50
2019-04-07T01:58:12.012Z,10.97
2019-04-07T02:01:34.983Z,10.53
2019-04-07T02:04:45.442Z,11.83
2019-04-07T02:08:07.791Z,9.63
2019-04-07T02:11:29.535Z,11.67
2019-04-07T02:14:52.206Z,9.53
2019-04-07T02:18:15.600Z,10.13
2019-04-07T02:21:45.037Z,9.90
2019-04-07T02:25:10.758Z,9.40
2019-04-07T02:28:36.291Z,9.37
2019-04-07T02:31:59.130Z,10.17
2019-04-07T02:35:20.782Z,9.57
2019-04-07T02:38:29.600Z,9.07
2019-04-07T02:41:53.652Z,10.80
2019-04-07T02:45:24.125Z,9.40
2019-04-07T02:48:45.417Z,11.70
2019-04-07T02:52:23.412Z,8.50
2019-04-07T02:55:47.074Z,11.67
2019-04-07T02:59:04.707Z,10.33
2019-04-07T03:02:23.286Z,9.43
2019-04-07T03:05:43.667Z,10.30
2019-04-07T03:09:06.195Z,9.93
2019-04-07T03:12:16.539Z,9.10
2019-04-07T03:15:25.218Z,11.13
2019-04-07T03:19:00.222Z,10.17
2019-04-07T03:22:20.676Z,10.73
2019-04-07T03:25:42.373Z,9.93
2019-04-07T03:29:18.142Z,10.93
2019-04-07T03:32:45.981Z,10.13
2019-04-07T03:36:06.121Z,10.73
2019-04-07T03:39:24.403Z,9.80
2019-04-07T03:42:54.102Z,10.00
2019-04-07T03:46:20.491Z,10.27
2019-04-07T03:49:41.381Z,10.40
2019-04-07T03:53:16.271Z,11.30
2019-04-07T03:56:35.939Z,9.67
2019-04-07T03:59:51.449Z,9.83
2019-04-07T04:03:02.922Z,9.83
2019-04-07T04:06:28.278Z,9.77
2019-04-07T04:09:56.016Z,10.30
2019-04-07T04:13:03.533Z,11.20
2019-04-07T04:16:10.533Z,11.10
2019-04-07T04:19:14.470Z,11.13
2019-04-07T04:22:18.513Z,9.77
2019-04-07T04:25:21.666Z,9.30
2019-04-07T04:28:24.662Z,10.10
2019-04-07T04:31:27.569Z,9.77
2019-04-07T04:34:31.495Z,8.03
2019-04-07T04:37:42.479Z,9.37
2019-04-07T04:40:40.762Z,9.80
2019-04-07T04:43:43.779Z,10.77
2019-04-07T04:46:47.389Z,10.43
2019-04-07T04:49:50.832Z,11.37
2019-04-07T04:52:54.544Z,9.43
2019-04-07T04:55:57.807Z,10.40
2019-04-07T04:59:00.987Z,11.23
2019-04-07T05:02:04.547Z,9.83
2019-04-07T05:05:09.389Z,9.23
2019-04-07T05:08:12.981Z,9.87
2019-04-07T05:11:16.741Z,9.50
2019-04-07T05:14:20.422Z,10.40
2019-04-07T05:17:24.291Z,11.10
2019-04-07T05:20:27.528Z,10.07
2019-04-07T05:23:30.731Z,11.00
2019-04-07T05:26:34.527Z,9.87
2019-04-07T05:29:39.060Z,10.03
2019-04-07T05:32:42.070Z,9.23
2019-04-07T05:35:45.627Z,10.83
2019-04-07T05:38:48.694Z,10.70
2019-04-07T05:41:51.611Z,10.60
2019-04-07T05:44:55.154Z,10.30
2019-04-07T05:48:00.159Z,10.43
2019-04-07T05:51:03.485Z,10.53
2019-04-07T05:54:07.139Z,10.27
2019-04-07T05:57:10.658Z,11.63
2019-04-07T06:00:16.671Z,9.60
2019-04-07T06:03:20.460Z,11.30
2019-04-07T06:06:23.396Z,11.40
2019-04-07T06:09:26.453Z,12.37
2019-04-07T06:12:29.441Z,12.40
2019-04-07T06:15:33.488Z,13.67
2019-04-07T06:18:37.921Z,10.17
2019-04-07T06:21:41.656Z,11.47
2019-04-07T06:24:45.082Z,11.37
2019-04-07T06:27:48.960Z,12.90
2019-04-07T06:30:53.055Z,13.33
2019-04-07T06:33:56.796Z,15.17
2019-04-07T06:37:00.160Z,12.20
2019-04-07T06:40:03.566Z,12.40
2019-04-07T06:43:07.474Z,12.37
2019-04-07T06:46:29.549Z,12.30
2019-04-07T06:50:01.890Z,12.83
2019-04-07T06:53:24.799Z,12.77
2019-04-07T06:56:57.017Z,12.70
2019-04-07T07:00:24.430Z,10.87
2019-04-07T07:03:53.075Z,11.90
2019-04-07T07:07:23.604Z,13.20
2019-04-07T07:10:53.136Z,11.60
2019-04-07T07:14:07.879Z,11.07
2019-04-07T07:17:29.011Z,15.07
2019-04-07T07:20:58.059Z,13.87
2019-04-07T07:24:02.634Z,14.03
2019-04-07T07:27:09.355Z,13.50
2019-04-07T07:30:15.175Z,12.60
2019-04-07T07:33:18.006Z,12.60
2019-04-07T07:36:22.706Z,13.43
2019-04-07T07:39:26.237Z,13.73
2019-04-07T07:42:30.494Z,13.50
2019-04-07T07:45:33.532Z,13.80
2019-04-07T07:48:37.730Z,13.80
2019-04-07T07:51:45.075Z,12.57
2019-04-07T07:54:47.586Z,12.30
2019-04-07T07:57:54.151Z,12.80
2019-04-07T08:00:55.606Z,11.50
2019-04-07T08:03:58.708Z,11.53
2019-04-07T08:07:02.652Z,13.07
2019-04-07T08:10:06.247Z,11.90
2019-04-07T08:13:10.265Z,13.43
2019-04-07T08:16:14.076Z,12.23
2019-04-07T08:19:17.934Z,13.37
2019-04-07T08:22:29.922Z,11.73
2019-04-07T08:25:26.832Z,11.57
2019-04-07T08:28:33.677Z,12.47
2019-04-07T08:31:35.211Z,12.80
2019-04-07T08:34:38.129Z,11.80
2019-04-07T08:37:41.583Z,12.17
2019-04-07T08:40:45.638Z,11.60
2019-04-07T08:43:53.278Z,13.20
2019-04-07T08:46:54.089Z,12.03
2019-04-07T08:49:57.936Z,10.97
2019-04-07T08:53:02.050Z,10.20
2019-04-07T08:56:08.212Z,9.90
2019-04-07T08:59:14.420Z,10.70
2019-04-07T09:02:15.336Z,9.90
2019-04-07T09:05:20.567Z,8.70
2019-04-07T09:08:23.076Z,9.90
2019-04-07T09:11:27.108Z,9.67
2019-04-07T09:14:31.373Z,8.93
2019-04-07T09:17:48.726Z,7.40
2019-04-07T09:21:13.323Z,9.93
2019-04-07T09:24:33.301Z,8.10
2019-04-07T09:27:59.628Z,9.60
2019-04-07T09:31:16.497Z,11.60
2019-04-07T09:34:42.936Z,11.13
2019-04-07T09:37:56.378Z,10.87
2019-04-07T09:41:40.752Z,10.37
2019-04-07T09:45:07.436Z,11.83
2019-04-07T09:48:26.764Z,10.50
2019-04-07T09:51:56.247Z,9.57
2019-04-07T09:55:19.108Z,9.33
2019-04-07T09:58:43.648Z,9.63
2019-04-07T10:02:09.263Z,8.80
2019-04-07T10:05:30.743Z,9.60
2019-04-07T10:08:48.662Z,9.80
2019-04-07T10:12:14.266Z,11.13
2019-04-07T10:15:49.018Z,9.50
2019-04-07T10:19:01.919Z,9.00
2019-04-07T10:22:25.564Z,9.50
2019-04-07T10:25:35.683Z,8.73
2019-04-07T10:29:01.814Z,8.10
2019-04-07T10:32:16.474Z,7.57
2019-04-07T10:35:31.682Z,6.80
2019-04-07T10:38:53.162Z,6.67
2019-04-07T10:42:21.934Z,7.17
2019-04-07T10:45:33.828Z,6.90
2019-04-07T10:48:49.914Z,6.57
2019-04-07T10:52:09.233Z,6.20
2019-04-07T10:55:31.100Z,5.17
2019-04-07T10:58:51.768Z,7.73
2019-04-07T11:02:14.864Z,5.47
2019-04-07T11:05:41.154Z,5.77
2019-04-07T11:09:13.283Z,6.27
2019-04-07T11:12:54.833Z,5.63
2019-04-07T11:16:26.338Z,6.57
2019-04-07T11:19:58.075Z,6.83
2019-04-07T11:23:24.339Z,5.83
2019-04-07T11:27:05.364Z,8.13
2019-04-07T11:30:24.566Z,6.50
2019-04-07T11:33:39.526Z,6.07
2019-04-07T11:36:57.106Z,7.07
2019-04-07T11:40:20.958Z,6.03
2019-04-07T11:43:50.532Z,6.90
2019-04-07T11:47:11.969Z,6.53
2019-04-07T11:50:34.282Z,6.50
2019-04-07T11:53:58.775Z,6.47
2019-04-07T11:57:17.357Z,6.37
2019-04-07T12:00:52.664Z,7.47
2019-04-07T12:04:11.125Z,7.00
2019-04-07T12:07:26.626Z,6.53
2019-04-07T12:10:56.222Z,6.90
2019-04-07T12:14:20.308Z,8.00
2019-04-07T12:17:46.508Z,6.90
2019-04-07T12:21:00.895Z,7.37
2019-04-07T12:24:09.441Z,7.50
2019-04-07T12:27:43.896Z,5.47
2019-04-07T12:30:54.529Z,7.80
2019-04-07T12:34:29.711Z,7.20
2019-04-07T12:38:01.686Z,6.97
2019-04-07T12:41:31.989Z,6.13
2019-04-07T12:45:01.799Z,7.63
2019-04-07T12:48:41.069Z,8.03
2019-04-07T12:52:03.152Z,7.17
2019-04-07T12:55:19.447Z,6.77
2019-04-07T12:58:46.268Z,7.63
2019-04-07T13:02:08.113Z,6.20
2019-04-07T13:05:29.852Z,6.77
2019-04-07T13:08:51.970Z,7.27
2019-04-07T13:12:22.931Z,6.80
2019-04-07T13:15:49.481Z,8.77
2019-04-07T13:19:15.549Z,7.20
2019-04-07T13:22:51.828Z,7.10
2019-04-07T13:26:17.584Z,7.47
2019-04-07T13:29:33.769Z,7.40
2019-04-07T13:32:56.364Z,8.10
2019-04-07T13:36:06.092Z,7.40
2019-04-07T13:39:35.859Z,7.73
2019-04-07T13:42:56.651Z,7.87
2019-04-07T13:46:17.501Z,7.23
2019-04-07T13:49:32.247Z,6.37
2019-04-07T13:53:14.563Z,7.40
2019-04-07T13:56:25.473Z,7.10
2019-04-07T13:59:46.681Z,7.67
2019-04-07T14:03:12.456Z,7.40
2019-04-07T14:06:29.497Z,6.93
2019-04-07T14:09:56.090Z,5.17
2019-04-07T14:13:07.347Z,7.93
2019-04-07T14:16:48.737Z,8.40
2019-04-07T14:20:11.598Z,6.93
2019-04-07T14:23:22.511Z,7.17
2019-04-07T14:26:43.843Z,6.90
2019-04-07T14:30:15.593Z,7.40
2019-04-07T14:33:33.781Z,7.07
2019-04-07T14:36:56.316Z,8.30
2019-04-07T14:40:08.499Z,6.60
2019-04-07T14:43:34.435Z,7.40
2019-04-07T14:47:00.100Z,7.37
2019-04-07T14:50:25.142Z,6.10
2019-04-07T14:53:47.298Z,7.10
2019-04-07T14:57:09.430Z,6.90
2019-04-07T15:00:41.729Z,7.73
2019-04-07T15:03:45.842Z,7.00
2019-04-07T15:07:04.077Z,7.30
2019-04-07T15:10:16.930Z,7.77
2019-04-07T15:13:25.860Z,6.63
2019-04-07T15:16:29.342Z,6.97
2019-04-07T15:19:33.228Z,8.20
2019-04-07T15:22:37.841Z,7.10
2019-04-07T15:25:43.930Z,8.47
2019-04-07T15:28:45.702Z,7.73
2019-04-07T15:31:50.821Z,8.40
2019-04-07T15:34:54.617Z,7.30
2019-04-07T15:37:57.672Z,6.50
2019-04-07T15:41:01.213Z,8.20
2019-04-07T15:44:07.001Z,6.97
2019-04-07T15:47:09.879Z,7.33
2019-04-07T15:50:13.766Z,7.67
2019-04-07T15:53:17.677Z,7.30
2019-04-07T15:56:20.950Z,7.70
2019-04-07T15:59:24.862Z,8.83
2019-04-07T16:02:28.914Z,8.00
2019-04-07T16:05:39.920Z,8.50
2019-04-07T16:08:36.945Z,9.33
2019-04-07T16:11:40.345Z,8.63
2019-04-07T16:14:45.909Z,8.90
2019-04-07T16:17:49.121Z,7.90
2019-04-07T16:20:52.956Z,7.70
2019-04-07T16:23:56.081Z,8.17
2019-04-07T16:27:02.243Z,7.90
2019-04-07T16:30:05.089Z,7.80
2019-04-07T16:33:08.841Z,7.70
2019-04-07T16:36:12.982Z,9.57
2019-04-07T16:39:16.233Z,7.90
2019-04-07T16:42:19.630Z,7.80
2019-04-07T16:45:22.714Z,8.80
2019-04-07T16:48:26.144Z,6.90
2019-04-07T16:51:31.626Z,7.37
2019-04-07T16:54:33.990Z,8.30
2019-04-07T16:57:37.582Z,8.10
2019-04-07T17:00:40.614Z,7.50
2019-04-07T17:03:44.271Z,8.07
2019-04-07T17:06:58.483Z,8.37
2019-04-07T17:09:54.981Z,6.80
2019-04-07T17:13:00.300Z,8.60
2019-04-07T17:16:02.823Z,7.93
2019-04-07T17:19:07.633Z,8.87
2019-04-07T17:22:13.991Z,8.70
2019-04-07T17:25:15.716Z,8.60
2019-04-07T17:28:19.507Z,7.43
2019-04-07T17:31:25.032Z,6.90
2019-04-07T17:34:29.433Z,7.57
2019-04-07T17:37:32.370Z,7.20
2019-04-07T17:40:44.928Z,8.63
2019-04-07T17:44:06.803Z,9.10
2019-04-07T17:47:36.662Z,8.10
2019-04-07T17:50:48.741Z,7.93
2019-04-07T17:54:23.908Z,8.40
2019-04-07T17:57:46.438Z,7.17
2019-04-07T18:01:08.970Z,7.20
2019-04-07T18:04:21.786Z,7.90
2019-04-07T18:07:44.853Z,8.00
2019-04-07T18:11:20.150Z,7.77
2019-04-07T18:14:36.303Z,7.57
2019-04-07T18:17:58.892Z,8.60
2019-04-07T18:21:40.143Z,9.00
2019-04-07T18:25:03.732Z,6.73
2019-04-07T18:28:35.925Z,7.40
2019-04-07T18:31:58.958Z,7.87
2019-04-07T18:35:14.134Z,7.80
2019-04-07T18:38:46.744Z,7.40
2019-04-07T18:42:06.581Z,7.97
2019-04-07T18:45:46.537Z,8.40
2019-04-07T18:48:56.481Z,8.53
2019-04-07T18:52:26.864Z,9.33
2019-04-07T18:55:50.797Z,8.60
2019-04-07T18:59:18.204Z,7.23
2019-04-07T19:02:44.194Z,8.80
2019-04-07T19:06:08.246Z,7.10
2019-04-07T19:09:36.468Z,8.10
2019-04-07T19:13:13.531Z,8.73
2019-04-07T19:16:23.406Z,7.90
2019-04-07T19:19:53.497Z,7.53
2019-04-07T19:23:06.742Z,9.00
2019-04-07T19:26:29.047Z,9.20
2019-04-07T19:30:13.247Z,8.30
2019-04-07T19:33:27.097Z,8.27
2019-04-07T19:36:42.781Z,8.77
2019-04-07T19:40:04.253Z,9.27
2019-04-07T19:43:29.249Z,8.23
2019-04-07T19:47:01.528Z,8.80
2019-04-07T19:50:22.718Z,10.03
2019-04-07T19:53:43.189Z,9.73
2019-04-07T19:57:00.493Z,9.27
2019-04-07T20:00:26.278Z,9.63
2019-04-07T20:04:05.334Z,10.03
2019-04-07T20:07:20.208Z,10.13
2019-04-07T20:10:39.689Z,11.60
2019-04-07T20:13:56.326Z,9.40
2019-04-07T20:17:23.567Z,11.10
2019-04-07T20:20:48.644Z,10.00
2019-04-07T20:24:17.484Z,9.67
2019-04-07T20:27:40.582Z,9.30
2019-04-07T20:31:03.736Z,10.23
2019-04-07T20:34:36.595Z,9.67
2019-04-07T20:38:02.062Z,8.33
2019-04-07T20:41:23.900Z,10.23
2019-04-07T20:44:38.248Z,8.60
2019-04-07T20:48:01.597Z,10.77
2019-04-07T20:51:20.958Z,9.90
2019-04-07T20:54:44.394Z,9.77
2019-04-07T20:58:15.278Z,10.07
2019-04-07T21:01:33.426Z,10.63
2019-04-07T21:04:52.090Z,15.93
2019-04-07T21:08:08.280Z,10.17
2019-04-07T21:11:24.001Z,8.63
2019-04-07T21:14:39.371Z,10.20
2019-04-07T21:18:11.053Z,10.27
2019-04-07T21:21:37.474Z,10.20
2019-04-07T21:24:56.367Z,10.77
2019-04-07T21:28:25.346Z,10.03
2019-04-07T21:31:47.697Z,10.03
2019-04-07T21:35:05.401Z,9.77
2019-04-07T21:38:29.960Z,10.50
2019-04-07T21:41:56.297Z,11.93
2019-04-07T21:45:32.372Z,9.50
2019-04-07T21:48:48.814Z,9.13
2019-04-07T21:52:06.662Z,10.43
2019-04-07T21:55:26.766Z,9.10
2019-04-07T21:58:57.787Z,10.10
2019-04-07T22:02:21.633Z,10.70
2019-04-07T22:05:57.228Z,11.33
2019-04-07T22:09:04.743Z,11.80
2019-04-07T22:12:10.521Z,10.47
2019-04-07T22:15:14.293Z,11.27
2019-04-07T22:18:19.500Z,11.37
2019-04-07T22:21:23.459Z,9.13
2019-04-07T22:24:31.314Z,10.80
2019-04-07T22:27:32.625Z,9.80
2019-04-07T22:30:39.915Z,10.37
2019-04-07T22:33:40.725Z,10.70
2019-04-07T22:36:46.319Z,11.10
2019-04-07T22:39:49.221Z,9.67
2019-04-07T22:42:52.430Z,9.73
2019-04-07T22:46:06.236Z,12.67
2019-04-07T22:49:00.904Z,9.73
2019-04-07T22:52:05.483Z,10.77
2019-04-07T22:55:09.695Z,9.70
2019-04-07T22:58:14.596Z,10.57
2019-04-07T23:01:17.554Z,10.63
2019-04-07T23:04:20.476Z,9.83
2019-04-07T23:07:23.501Z,10.77
2019-04-07T23:10:27.395Z,10.47
2019-04-07T23:13:30.410Z,10.10
2019-04-07T23:16:33.343Z,9.90
2019-04-07T23:19:36.341Z,10.13
2019-04-07T23:22:40.262Z,10.27
2019-04-07T23:25:44.065Z,10.00
2019-04-07T23:28:47.220Z,11.30
2019-04-07T23:31:50.294Z,10.73
2019-04-07T23:34:53.216Z,10.23
2019-04-07T23:37:57.340Z,9.60
2019-04-07T23:41:01.206Z,9.43
2019-04-07T23:44:06.066Z,10.10
2019-04-07T23:47:09.160Z,9.40
2019-04-07T23:50:13.016Z,10.00
2019-04-07T23:54:07.257Z,9.13
2019-04-07T23:57:11.376Z,10.20
